createdAt,value
2023-05-24T00:00:13.448Z,3.11
2023-05-24T00:01:26.303Z,3.38
2023-05-24T00:02:29.663Z,3.23
2023-05-24T00:03:35.501Z,3.63
2023-05-24T00:04:38.957Z,3.16
2023-05-24T00:05:42.365Z,3.17
2023-05-24T00:06:45.794Z,3.25
2023-05-24T00:07:49.038Z,3.44
2023-05-24T00:08:52.306Z,3.43
2023-05-24T00:09:55.646Z,3.25
2023-05-24T00:10:58.864Z,3.16
2023-05-24T00:12:02.171Z,3.32
2023-05-24T00:13:05.564Z,3.66
2023-05-24T00:14:08.863Z,3.40
2023-05-24T00:15:12.276Z,3.08
2023-05-24T00:16:16.195Z,3.61
2023-05-24T00:17:19.635Z,3.44
2023-05-24T00:18:22.927Z,3.36
2023-05-24T00:19:26.485Z,3.99
2023-05-24T00:20:29.813Z,3.57
2023-05-24T00:21:36.139Z,3.02
2023-05-24T00:22:40.616Z,3.05
2023-05-24T00:23:44.798Z,3.47
2023-05-24T00:24:49.033Z,3.43
2023-05-24T00:25:53.037Z,2.83
2023-05-24T00:26:56.485Z,3.21
2023-05-24T00:27:59.734Z,3.41
2023-05-24T00:29:03.054Z,3.46
2023-05-24T00:30:07.673Z,3.23
2023-05-24T00:31:11.057Z,3.41
2023-05-24T00:32:14.499Z,3.29
2023-05-24T00:33:18.536Z,3.54
2023-05-24T00:34:22.290Z,3.34
2023-05-24T00:35:25.617Z,2.94
2023-05-24T00:36:29.994Z,3.21
2023-05-24T00:37:33.913Z,3.21
2023-05-24T00:38:38.565Z,3.38
2023-05-24T00:39:42.212Z,3.30
2023-05-24T00:40:46.781Z,3.47
2023-05-24T00:41:50.441Z,3.15
2023-05-24T00:42:54.231Z,3.52
2023-05-24T00:43:57.601Z,3.55
2023-05-24T00:45:01.349Z,3.55
2023-05-24T00:46:29.550Z,3.28
2023-05-24T00:47:33.665Z,3.50
2023-05-24T00:48:37.117Z,3.34
2023-05-24T00:49:41.503Z,2.92
2023-05-24T00:50:45.203Z,3.25
2023-05-24T00:51:50.622Z,3.58
2023-05-24T00:52:55.028Z,3.34
2023-05-24T00:53:58.483Z,2.96
2023-05-24T00:55:02.769Z,2.93
2023-05-24T00:56:07.671Z,3.10
2023-05-24T00:57:14.733Z,3.33
2023-05-24T00:58:18.171Z,3.46
2023-05-24T00:59:21.832Z,3.23
2023-05-24T01:00:25.501Z,3.39
2023-05-24T01:01:36.052Z,3.08
2023-05-24T01:02:39.830Z,3.17
2023-05-24T01:03:44.909Z,3.39
2023-05-24T01:04:49.736Z,3.11
2023-05-24T01:05:53.231Z,3.56
2023-05-24T01:07:00.047Z,3.76
2023-05-24T01:08:15.773Z,3.46
2023-05-24T01:09:45.492Z,3.55
2023-05-24T01:11:03.493Z,3.34
2023-05-24T01:12:42.484Z,3.63
2023-05-24T01:14:08.140Z,3.38
2023-05-24T01:15:43.474Z,3.64
2023-05-24T01:16:52.435Z,3.60
2023-05-24T01:18:08.464Z,3.19
2023-05-24T01:19:34.593Z,3.12
2023-05-24T01:20:41.974Z,3.07
2023-05-24T01:22:12.753Z,3.51
2023-05-24T01:23:51.097Z,3.43
2023-05-24T01:25:08.257Z,3.62
2023-05-24T01:26:52.593Z,3.51
2023-05-24T01:27:56.690Z,3.84
2023-05-24T01:29:03.414Z,3.54
2023-05-24T01:30:08.578Z,3.36
2023-05-24T01:31:14.274Z,3.02
2023-05-24T01:32:20.017Z,3.48
2023-05-24T01:33:23.398Z,3.44
2023-05-24T01:34:27.193Z,3.26
2023-05-24T01:35:30.437Z,3.50
2023-05-24T01:36:34.292Z,3.33
2023-05-24T01:37:37.657Z,2.99
2023-05-24T01:38:43.127Z,3.37
2023-05-24T01:39:47.335Z,3.25
2023-05-24T01:41:00.198Z,3.40
2023-05-24T01:42:21.908Z,3.43
2023-05-24T01:44:16.976Z,3.53
2023-05-24T01:45:35.851Z,3.30
2023-05-24T01:46:40.149Z,2.92
2023-05-24T01:48:03.615Z,3.14
2023-05-24T01:49:18.701Z,3.32
2023-05-24T01:50:29.619Z,3.44
2023-05-24T01:51:46.971Z,3.57
2023-05-24T01:52:53.434Z,3.51
2023-05-24T01:54:00.216Z,3.54
2023-05-24T01:55:06.047Z,3.06
2023-05-24T01:56:12.990Z,3.09
2023-05-24T01:57:17.937Z,3.15
2023-05-24T01:58:27.053Z,3.15
2023-05-24T01:59:33.208Z,3.04
2023-05-24T02:00:37.332Z,3.05
2023-05-24T02:01:41.653Z,2.78
2023-05-24T02:02:45.526Z,2.86
2023-05-24T02:03:49.190Z,2.75
2023-05-24T02:04:52.963Z,2.99
2023-05-24T02:05:56.170Z,2.93
2023-05-24T02:06:59.538Z,2.98
2023-05-24T02:08:02.867Z,3.20
2023-05-24T02:09:06.449Z,3.50
2023-05-24T02:10:10.439Z,3.37
2023-05-24T02:11:13.690Z,3.55
2023-05-24T02:12:17.237Z,3.35
2023-05-24T02:13:20.581Z,3.33
2023-05-24T02:14:25.173Z,2.99
2023-05-24T02:15:31.068Z,3.06
2023-05-24T02:16:34.515Z,2.82
2023-05-24T02:17:39.026Z,3.24
2023-05-24T02:18:45.499Z,3.05
2023-05-24T02:19:50.238Z,2.98
2023-05-24T02:20:53.826Z,3.08
2023-05-24T02:21:58.757Z,2.55
2023-05-24T02:23:02.056Z,2.54
2023-05-24T02:24:07.604Z,3.09
2023-05-24T02:25:11.129Z,2.79
2023-05-24T02:26:15.428Z,2.50
2023-05-24T02:27:18.889Z,2.89
2023-05-24T02:28:22.422Z,2.53
2023-05-24T02:29:26.237Z,2.76
2023-05-24T02:30:29.658Z,2.67
2023-05-24T02:31:33.318Z,2.75
2023-05-24T02:32:37.243Z,2.39
2023-05-24T02:33:41.292Z,2.55
2023-05-24T02:34:45.171Z,3.06
2023-05-24T02:35:48.509Z,2.47
2023-05-24T02:36:54.979Z,2.41
2023-05-24T02:37:59.368Z,2.42
2023-05-24T02:39:04.699Z,2.59
2023-05-24T02:40:08.657Z,2.52
2023-05-24T02:41:21.316Z,2.52
2023-05-24T02:42:24.694Z,2.77
2023-05-24T02:43:28.009Z,2.54
2023-05-24T02:44:31.393Z,2.98
2023-05-24T02:45:34.695Z,3.07
2023-05-24T02:46:37.957Z,2.94
2023-05-24T02:47:41.361Z,2.94
2023-05-24T02:48:44.570Z,2.66
2023-05-24T02:49:47.843Z,2.46
2023-05-24T02:50:51.132Z,2.55
2023-05-24T02:51:54.354Z,2.91
2023-05-24T02:52:57.564Z,2.67
2023-05-24T02:54:01.866Z,2.02
2023-05-24T02:55:06.201Z,2.43
2023-05-24T02:56:10.523Z,2.57
2023-05-24T02:57:14.346Z,2.27
2023-05-24T02:58:19.989Z,2.58
2023-05-24T02:59:26.297Z,2.66
2023-05-24T03:00:29.728Z,2.59
2023-05-24T03:01:35.252Z,2.75
2023-05-24T03:02:39.318Z,2.49
2023-05-24T03:03:43.082Z,2.73
2023-05-24T03:04:46.683Z,2.63
2023-05-24T03:05:50.239Z,2.45
2023-05-24T03:06:54.404Z,2.77
2023-05-24T03:07:59.168Z,2.63
2023-05-24T03:09:02.636Z,2.58
2023-05-24T03:10:06.715Z,2.75
2023-05-24T03:11:09.977Z,2.43
2023-05-24T03:12:14.779Z,2.73
2023-05-24T03:13:18.009Z,2.68
2023-05-24T03:14:23.465Z,2.15
2023-05-24T03:15:27.822Z,2.55
2023-05-24T03:16:32.676Z,2.33
2023-05-24T03:17:36.313Z,2.93
2023-05-24T03:18:39.623Z,2.51
2023-05-24T03:19:43.053Z,2.64
2023-05-24T03:20:46.384Z,2.57
2023-05-24T03:21:49.833Z,2.79
2023-05-24T03:22:53.845Z,2.46
2023-05-24T03:23:57.107Z,2.54
2023-05-24T03:25:00.429Z,2.48
2023-05-24T03:26:03.777Z,2.57
2023-05-24T03:27:07.866Z,2.36
2023-05-24T03:28:11.754Z,2.45
2023-05-24T03:29:15.163Z,2.65
2023-05-24T03:30:19.328Z,2.66
2023-05-24T03:31:28.899Z,2.80
2023-05-24T03:32:32.379Z,2.79
2023-05-24T03:33:35.733Z,2.47
2023-05-24T03:34:38.949Z,2.47
2023-05-24T03:35:42.723Z,2.49
2023-05-24T03:36:46.405Z,2.94
2023-05-24T03:37:50.217Z,3.03
2023-05-24T03:38:54.203Z,2.51
2023-05-24T03:39:58.703Z,2.36
2023-05-24T03:41:17.698Z,2.32
2023-05-24T03:42:21.961Z,2.37
2023-05-24T03:43:25.220Z,2.37
2023-05-24T03:44:32.517Z,2.37
2023-05-24T03:45:39.745Z,2.81
2023-05-24T03:46:43.499Z,2.84
2023-05-24T03:47:46.963Z,2.41
2023-05-24T03:48:50.691Z,2.72
2023-05-24T03:49:53.989Z,2.61
2023-05-24T03:50:57.281Z,2.67
2023-05-24T03:52:00.575Z,2.47
2023-05-24T03:53:04.288Z,2.54
2023-05-24T03:54:07.693Z,2.47
2023-05-24T03:55:11.058Z,2.56
2023-05-24T03:56:14.555Z,2.54
2023-05-24T03:57:18.655Z,2.06
2023-05-24T03:58:23.214Z,2.21
2023-05-24T03:59:27.082Z,2.49
2023-05-24T04:00:31.426Z,2.32
2023-05-24T04:01:37.367Z,2.39
2023-05-24T04:02:40.756Z,2.60
2023-05-24T04:04:30.031Z,2.53
2023-05-24T04:05:34.832Z,2.07
2023-05-24T04:06:38.872Z,2.09
2023-05-24T04:07:43.101Z,2.29
2023-05-24T04:08:46.755Z,2.54
2023-05-24T04:09:50.073Z,2.16
2023-05-24T04:10:53.439Z,2.65
2023-05-24T04:11:56.619Z,2.40
2023-05-24T04:13:01.452Z,2.23
2023-05-24T04:14:04.741Z,2.62
2023-05-24T04:15:09.059Z,2.18
2023-05-24T04:16:14.752Z,2.20
2023-05-24T04:17:19.145Z,2.53
2023-05-24T04:18:22.695Z,2.26
2023-05-24T04:19:26.574Z,2.45
2023-05-24T04:20:30.233Z,2.37
2023-05-24T04:21:34.103Z,2.47
2023-05-24T04:22:37.556Z,2.50
2023-05-24T04:23:41.035Z,2.44
2023-05-24T04:24:44.337Z,2.25
2023-05-24T04:25:47.901Z,2.56
2023-05-24T04:26:52.379Z,2.36
2023-05-24T04:27:56.894Z,2.63
2023-05-24T04:29:02.452Z,2.66
2023-05-24T04:30:06.509Z,2.82
2023-05-24T04:31:12.537Z,2.57
2023-05-24T04:32:17.300Z,2.68
2023-05-24T04:33:21.570Z,2.66
2023-05-24T04:34:24.872Z,3.26
2023-05-24T04:35:28.253Z,3.04
2023-05-24T04:36:34.674Z,3.02
2023-05-24T04:37:38.017Z,2.73
2023-05-24T04:38:41.692Z,2.60
2023-05-24T04:39:48.203Z,2.77
2023-05-24T04:40:51.465Z,2.72
2023-05-24T04:41:55.950Z,2.67
2023-05-24T04:42:59.365Z,2.76
2023-05-24T04:44:03.626Z,2.68
2023-05-24T04:45:07.859Z,3.02
2023-05-24T04:46:11.236Z,2.81
2023-05-24T04:47:15.349Z,2.88
2023-05-24T04:48:18.932Z,2.74
2023-05-24T04:49:23.404Z,2.51
2023-05-24T04:50:27.521Z,2.73
2023-05-24T04:51:30.868Z,3.13
2023-05-24T04:52:37.145Z,2.58
2023-05-24T04:53:40.804Z,2.91
2023-05-24T04:54:44.154Z,2.57
2023-05-24T04:55:48.128Z,2.67
2023-05-24T04:56:51.551Z,3.05
2023-05-24T04:57:54.803Z,2.66
2023-05-24T04:58:58.008Z,2.93
2023-05-24T05:00:01.535Z,3.01
2023-05-24T05:01:04.863Z,2.68
2023-05-24T05:02:08.190Z,2.91
2023-05-24T05:03:12.255Z,3.03
2023-05-24T05:04:15.673Z,2.82
2023-05-24T05:05:18.999Z,2.77
2023-05-24T05:06:22.777Z,2.75
2023-05-24T05:07:26.045Z,2.65
2023-05-24T05:08:29.387Z,2.85
2023-05-24T05:09:32.784Z,2.85
2023-05-24T05:10:36.931Z,2.62
2023-05-24T05:11:40.557Z,2.84
2023-05-24T05:12:43.880Z,2.63
2023-05-24T05:13:47.364Z,2.45
2023-05-24T05:14:51.382Z,2.73
2023-05-24T05:15:54.685Z,2.68
2023-05-24T05:16:58.193Z,2.59
2023-05-24T05:18:01.665Z,2.23
2023-05-24T05:19:05.553Z,2.24
2023-05-24T05:20:09.453Z,2.43
2023-05-24T05:21:13.197Z,2.47
2023-05-24T05:22:17.274Z,2.55
2023-05-24T05:23:20.571Z,2.38
2023-05-24T05:24:24.066Z,2.39
2023-05-24T05:25:27.497Z,2.62
2023-05-24T05:26:32.557Z,2.42
2023-05-24T05:27:36.336Z,2.74
2023-05-24T05:28:39.593Z,2.66
2023-05-24T05:29:43.106Z,2.51
2023-05-24T05:30:46.518Z,2.57
2023-05-24T05:31:49.881Z,2.54
2023-05-24T05:32:53.262Z,2.33
2023-05-24T05:33:56.739Z,2.84
2023-05-24T05:35:00.001Z,2.54
2023-05-24T05:36:03.323Z,2.61
2023-05-24T05:37:06.800Z,2.44
2023-05-24T05:38:10.055Z,2.03
2023-05-24T05:39:13.433Z,2.62
2023-05-24T05:40:17.425Z,2.77
2023-05-24T05:41:20.752Z,2.73
2023-05-24T05:42:24.154Z,2.79
2023-05-24T05:43:27.734Z,2.68
2023-05-24T05:44:30.946Z,2.54
2023-05-24T05:45:34.157Z,3.19
2023-05-24T05:46:37.576Z,2.50
2023-05-24T05:47:41.513Z,2.59
2023-05-24T05:48:46.390Z,2.70
2023-05-24T05:49:49.832Z,2.74
2023-05-24T05:50:53.387Z,2.71
2023-05-24T05:51:57.013Z,2.79
2023-05-24T05:53:00.405Z,3.12
2023-05-24T05:54:03.878Z,2.72
2023-05-24T05:55:07.913Z,2.59
2023-05-24T05:56:11.148Z,2.59
2023-05-24T05:57:14.666Z,2.99
2023-05-24T05:58:17.995Z,2.57
2023-05-24T05:59:21.423Z,2.72
2023-05-24T06:00:24.749Z,2.57
2023-05-24T06:01:28.082Z,2.66
2023-05-24T06:02:31.487Z,2.62
2023-05-24T06:03:35.037Z,2.45
2023-05-24T06:04:38.621Z,2.41
2023-05-24T06:05:42.613Z,2.52
2023-05-24T06:06:50.228Z,2.67
2023-05-24T06:07:53.507Z,2.30
2023-05-24T06:08:56.920Z,2.30
2023-05-24T06:10:00.375Z,2.37
2023-05-24T06:11:04.551Z,2.72
2023-05-24T06:12:08.044Z,2.65
2023-05-24T06:13:11.669Z,2.50
2023-05-24T06:14:19.253Z,2.39
2023-05-24T06:15:23.701Z,2.29
2023-05-24T06:16:27.287Z,2.49
2023-05-24T06:17:30.916Z,2.42
2023-05-24T06:18:35.161Z,2.25
2023-05-24T06:19:39.274Z,2.61
2023-05-24T06:20:42.625Z,2.60
2023-05-24T06:21:49.159Z,2.32
2023-05-24T06:22:52.957Z,2.50
2023-05-24T06:23:58.903Z,2.61
2023-05-24T06:25:02.641Z,2.34
2023-05-24T06:26:06.354Z,2.89
2023-05-24T06:27:09.545Z,2.83
2023-05-24T06:28:12.875Z,2.75
2023-05-24T06:29:16.230Z,2.51
2023-05-24T06:30:19.927Z,2.76
2023-05-24T06:31:23.296Z,2.62
2023-05-24T06:32:26.769Z,2.75
2023-05-24T06:33:30.344Z,2.66
2023-05-24T06:34:33.620Z,2.60
2023-05-24T06:35:36.912Z,2.75
2023-05-24T06:36:43.442Z,2.38
2023-05-24T06:37:46.892Z,2.98
2023-05-24T06:38:50.219Z,2.68
2023-05-24T06:39:53.477Z,2.73
2023-05-24T06:40:56.887Z,2.64
2023-05-24T06:42:00.192Z,2.67
2023-05-24T06:43:05.551Z,2.89
2023-05-24T06:44:08.841Z,2.64
2023-05-24T06:45:12.678Z,2.91
2023-05-24T06:46:17.179Z,2.97
2023-05-24T06:47:20.557Z,2.71
2023-05-24T06:48:24.034Z,2.43
2023-05-24T06:49:28.264Z,2.63
2023-05-24T06:50:31.943Z,2.73
2023-05-24T06:51:35.413Z,2.98
2023-05-24T06:52:38.812Z,2.77
2023-05-24T06:53:42.322Z,2.66
2023-05-24T06:54:45.701Z,2.80
2023-05-24T06:55:48.899Z,2.71
2023-05-24T06:56:52.279Z,2.86
2023-05-24T06:57:55.756Z,3.05
2023-05-24T06:59:00.709Z,2.67
2023-05-24T07:00:09.432Z,2.84
2023-05-24T07:01:13.127Z,2.77
2023-05-24T07:02:16.906Z,2.88
2023-05-24T07:03:20.295Z,3.03
2023-05-24T07:04:23.688Z,2.95
2023-05-24T07:05:26.963Z,3.18
2023-05-24T07:06:30.325Z,2.33
2023-05-24T07:07:34.455Z,2.72
2023-05-24T07:08:37.759Z,2.78
2023-05-24T07:09:42.909Z,2.84
2023-05-24T07:10:46.246Z,2.91
2023-05-24T07:11:49.590Z,2.76
2023-05-24T07:12:53.015Z,2.98
2023-05-24T07:13:56.491Z,3.05
2023-05-24T07:14:59.711Z,2.93
2023-05-24T07:16:03.071Z,2.89
2023-05-24T07:17:06.921Z,2.67
2023-05-24T07:18:10.848Z,2.60
2023-05-24T07:19:14.358Z,2.90
2023-05-24T07:20:17.707Z,2.76
2023-05-24T07:21:21.120Z,2.82
2023-05-24T07:22:26.055Z,2.59
2023-05-24T07:23:29.488Z,2.54
2023-05-24T07:24:32.741Z,2.54
2023-05-24T07:25:36.020Z,2.63
2023-05-24T07:26:40.113Z,2.43
2023-05-24T07:27:44.338Z,2.44
2023-05-24T07:28:47.875Z,2.98
2023-05-24T07:29:51.304Z,2.89
2023-05-24T07:30:54.863Z,2.61
2023-05-24T07:31:59.010Z,2.82
2023-05-24T07:33:03.144Z,2.72
2023-05-24T07:34:06.502Z,2.63
2023-05-24T07:35:13.696Z,2.81
2023-05-24T07:36:16.901Z,2.87
2023-05-24T07:37:20.263Z,2.64
2023-05-24T07:38:23.531Z,2.52
2023-05-24T07:39:27.977Z,2.68
2023-05-24T07:40:31.365Z,2.77
2023-05-24T07:41:34.695Z,3.03
2023-05-24T07:42:39.805Z,2.63
2023-05-24T07:43:43.083Z,2.48
2023-05-24T07:44:46.564Z,2.62
2023-05-24T07:45:49.757Z,2.38
2023-05-24T07:46:53.291Z,2.56
2023-05-24T07:47:57.582Z,3.00
2023-05-24T07:49:01.108Z,2.90
2023-05-24T07:50:04.982Z,2.99
2023-05-24T07:51:08.326Z,2.70
2023-05-24T07:52:11.710Z,2.85
2023-05-24T07:53:16.048Z,2.87
2023-05-24T07:54:19.463Z,2.87
2023-05-24T07:55:22.939Z,3.15
2023-05-24T07:56:26.432Z,2.78
2023-05-24T07:57:30.111Z,2.89
2023-05-24T07:58:33.440Z,3.32
2023-05-24T07:59:36.900Z,3.07
2023-05-24T08:00:40.405Z,3.14
2023-05-24T08:01:44.169Z,2.97
2023-05-24T08:02:47.573Z,3.13
2023-05-24T08:03:51.009Z,2.74
2023-05-24T08:04:54.381Z,3.04
2023-05-24T08:05:58.214Z,3.04
2023-05-24T08:07:03.548Z,3.08
2023-05-24T08:08:06.815Z,3.04
2023-05-24T08:09:10.096Z,3.39
2023-05-24T08:10:14.301Z,3.65
2023-05-24T08:11:17.994Z,2.70
2023-05-24T08:12:21.334Z,2.75
2023-05-24T08:13:25.276Z,2.85
2023-05-24T08:14:28.707Z,3.25
2023-05-24T08:15:32.385Z,2.75
2023-05-24T08:16:35.597Z,2.74
2023-05-24T08:17:41.964Z,2.94
2023-05-24T08:18:45.681Z,3.06
2023-05-24T08:19:49.037Z,2.88
2023-05-24T08:20:52.688Z,2.94
2023-05-24T08:21:58.046Z,2.67
2023-05-24T08:23:02.226Z,3.10
2023-05-24T08:24:07.607Z,2.79
2023-05-24T08:25:12.880Z,2.89
2023-05-24T08:26:19.814Z,2.87
2023-05-24T08:27:23.311Z,4.26
2023-05-24T08:28:28.014Z,2.97
2023-05-24T08:29:31.650Z,2.89
2023-05-24T08:30:35.915Z,2.91
2023-05-24T08:31:39.259Z,3.03
2023-05-24T08:32:43.035Z,2.65
2023-05-24T08:33:46.497Z,2.88
2023-05-24T08:34:50.020Z,3.08
2023-05-24T08:35:53.338Z,2.89
2023-05-24T08:36:56.772Z,3.01
2023-05-24T08:38:00.058Z,2.88
2023-05-24T08:39:03.374Z,2.77
2023-05-24T08:40:10.438Z,2.66
2023-05-24T08:41:13.684Z,3.15
2023-05-24T08:42:17.843Z,2.59
2023-05-24T08:43:22.640Z,2.93
2023-05-24T08:44:26.389Z,2.67
2023-05-24T08:45:37.800Z,2.79
2023-05-24T08:46:41.379Z,2.90
2023-05-24T08:47:45.320Z,2.86
2023-05-24T08:48:49.385Z,2.89
2023-05-24T08:49:53.858Z,3.16
2023-05-24T08:50:59.090Z,2.63
2023-05-24T08:52:04.590Z,3.18
2023-05-24T08:53:08.089Z,3.13
2023-05-24T08:54:13.065Z,2.81
2023-05-24T08:55:17.510Z,2.98
2023-05-24T08:56:20.930Z,3.21
2023-05-24T08:57:24.766Z,3.77
2023-05-24T08:58:28.070Z,3.07
2023-05-24T08:59:31.452Z,3.00
2023-05-24T09:00:34.864Z,2.74
2023-05-24T09:01:42.515Z,2.96
2023-05-24T09:02:48.195Z,3.11
2023-05-24T09:03:52.585Z,3.02
2023-05-24T09:04:57.952Z,2.98
2023-05-24T09:06:02.893Z,2.81
2023-05-24T09:07:08.266Z,3.56
2023-05-24T09:08:14.814Z,2.93
2023-05-24T09:09:22.252Z,2.82
2023-05-24T09:11:34.121Z,3.09
2023-05-24T09:12:39.949Z,2.75
2023-05-24T09:13:47.087Z,2.77
2023-05-24T09:14:51.278Z,2.70
2023-05-24T09:15:54.819Z,2.97
2023-05-24T09:16:59.394Z,3.13
2023-05-24T09:18:02.937Z,3.03
2023-05-24T09:19:06.190Z,3.07
2023-05-24T09:20:11.485Z,2.93
2023-05-24T09:21:15.150Z,2.84
2023-05-24T09:22:24.090Z,3.03
2023-05-24T09:23:28.813Z,3.15
2023-05-24T09:24:32.564Z,3.26
2023-05-24T09:25:36.072Z,2.92
2023-05-24T09:26:39.344Z,3.00
2023-05-24T09:27:47.389Z,2.92
2023-05-24T09:28:56.711Z,2.92
2023-05-24T09:30:00.324Z,2.95
2023-05-24T09:31:07.386Z,2.86
2023-05-24T09:32:11.606Z,2.94
2023-05-24T09:33:14.946Z,2.75
2023-05-24T09:34:18.339Z,3.22
2023-05-24T09:35:21.568Z,3.26
2023-05-24T09:36:24.863Z,3.02
2023-05-24T09:37:32.655Z,2.59
2023-05-24T09:38:37.152Z,3.02
2023-05-24T09:39:48.808Z,2.62
2023-05-24T09:41:04.165Z,2.72
2023-05-24T09:42:07.451Z,3.17
2023-05-24T09:43:11.547Z,2.87
2023-05-24T09:44:16.107Z,2.92
2023-05-24T09:45:19.485Z,2.77
2023-05-24T09:46:23.591Z,3.09
2023-05-24T09:47:34.318Z,2.67
2023-05-24T09:48:37.717Z,2.72
2023-05-24T09:49:41.029Z,2.93
2023-05-24T09:50:48.384Z,2.82
2023-05-24T09:51:53.620Z,3.13
2023-05-24T09:52:56.987Z,2.89
2023-05-24T09:54:05.203Z,2.66
2023-05-24T09:55:15.932Z,2.96
2023-05-24T09:56:20.076Z,2.95
2023-05-24T09:57:23.658Z,2.82
2023-05-24T09:58:36.070Z,3.05
2023-05-24T09:59:41.620Z,2.48
2023-05-24T10:00:45.297Z,2.84
2023-05-24T10:01:54.501Z,3.06
2023-05-24T10:03:08.127Z,2.73
2023-05-24T10:04:11.604Z,2.59
2023-05-24T10:05:15.077Z,2.82
2023-05-24T10:06:19.536Z,2.95
2023-05-24T10:07:23.331Z,2.81
2023-05-24T10:08:27.575Z,3.13
2023-05-24T10:09:34.757Z,3.01
2023-05-24T10:10:38.098Z,2.97
2023-05-24T10:11:43.037Z,3.36
2023-05-24T10:12:48.343Z,2.70
2023-05-24T10:13:51.912Z,2.82
2023-05-24T10:14:58.981Z,2.86
2023-05-24T10:16:02.721Z,3.00
2023-05-24T10:17:08.398Z,2.86
2023-05-24T10:18:13.887Z,2.38
2023-05-24T10:19:17.789Z,2.68
2023-05-24T10:20:21.749Z,2.88
2023-05-24T10:21:26.904Z,2.89
2023-05-24T10:22:30.789Z,2.93
2023-05-24T10:23:37.556Z,2.98
2023-05-24T10:24:47.425Z,2.70
2023-05-24T10:26:01.137Z,3.02
2023-05-24T10:27:10.089Z,2.86
2023-05-24T10:28:16.864Z,2.75
2023-05-24T10:29:43.293Z,2.61
2023-05-24T10:31:11.417Z,2.82
2023-05-24T10:32:19.612Z,2.65
2023-05-24T10:33:25.761Z,2.65
2023-05-24T10:34:31.460Z,2.64
2023-05-24T10:35:38.845Z,2.76
2023-05-24T10:36:42.701Z,2.51
2023-05-24T10:37:48.233Z,2.52
2023-05-24T10:38:52.485Z,2.69
2023-05-24T10:39:56.163Z,2.40
2023-05-24T10:40:59.698Z,3.16
2023-05-24T10:42:10.615Z,2.77
2023-05-24T10:43:14.261Z,2.90
2023-05-24T10:44:21.936Z,3.04
2023-05-24T10:45:34.150Z,2.94
2023-05-24T10:46:37.498Z,2.92
2023-05-24T10:47:40.871Z,2.82
2023-05-24T10:48:44.447Z,2.70
2023-05-24T10:49:53.651Z,2.53
2023-05-24T10:50:58.079Z,2.89
2023-05-24T10:52:10.457Z,2.58
2023-05-24T10:53:16.380Z,2.84
2023-05-24T10:54:25.751Z,2.57
2023-05-24T10:55:28.978Z,2.80
2023-05-24T10:56:32.230Z,2.73
2023-05-24T10:57:36.180Z,2.18
2023-05-24T10:59:00.447Z,2.67
2023-05-24T11:01:35.688Z,2.61
2023-05-24T11:02:39.197Z,2.42
2023-05-24T11:03:42.988Z,2.59
2023-05-24T11:04:50.029Z,2.62
2023-05-24T11:05:56.142Z,2.45
2023-05-24T11:07:04.668Z,2.61
2023-05-24T11:08:08.275Z,2.82
2023-05-24T11:09:12.044Z,2.52
2023-05-24T11:10:20.094Z,2.61
2023-05-24T11:11:31.354Z,2.77
2023-05-24T11:12:39.545Z,2.52
2023-05-24T11:13:43.867Z,2.69
2023-05-24T11:14:52.973Z,2.63
2023-05-24T11:15:57.871Z,2.39
2023-05-24T11:17:01.757Z,2.53
2023-05-24T11:18:13.377Z,2.46
2023-05-24T11:19:33.965Z,2.36
2023-05-24T11:20:37.480Z,2.68
2023-05-24T11:21:44.498Z,2.37
2023-05-24T11:22:48.034Z,2.29
2023-05-24T11:23:52.181Z,2.60
2023-05-24T11:24:55.967Z,2.66
2023-05-24T11:25:59.897Z,2.15
2023-05-24T11:27:04.392Z,2.56
2023-05-24T11:28:11.506Z,2.32
2023-05-24T11:29:23.200Z,2.27
2023-05-24T11:30:27.242Z,2.32
2023-05-24T11:31:31.000Z,2.53
2023-05-24T11:32:34.374Z,2.34
2023-05-24T11:33:43.444Z,2.41
2023-05-24T11:34:50.483Z,2.25
2023-05-24T11:35:55.670Z,2.27
2023-05-24T11:37:00.993Z,2.43
2023-05-24T11:38:04.403Z,2.56
2023-05-24T11:39:11.009Z,2.46
2023-05-24T11:40:17.013Z,2.57
2023-05-24T11:41:20.939Z,2.63
2023-05-24T11:42:24.424Z,2.47
2023-05-24T11:43:27.874Z,2.61
2023-05-24T11:44:33.532Z,2.28
2023-05-24T11:45:37.637Z,2.32
2023-05-24T11:46:44.033Z,2.55
2023-05-24T11:47:49.301Z,2.76
2023-05-24T11:48:59.720Z,2.54
2023-05-24T11:50:03.314Z,2.39
2023-05-24T11:51:07.747Z,2.92
2023-05-24T11:52:10.967Z,2.79
2023-05-24T11:53:16.283Z,2.50
2023-05-24T11:54:20.635Z,2.34
2023-05-24T11:55:27.877Z,2.41
2023-05-24T11:56:33.901Z,2.65
2023-05-24T11:57:47.020Z,2.60
2023-05-24T11:58:51.923Z,2.36
2023-05-24T11:59:56.109Z,2.46
2023-05-24T12:00:59.411Z,2.57
2023-05-24T12:02:06.252Z,2.46
2023-05-24T12:03:10.942Z,2.52
2023-05-24T12:04:14.853Z,2.61
2023-05-24T12:05:20.309Z,2.25
2023-05-24T12:06:23.666Z,2.29
2023-05-24T12:07:26.907Z,2.34
2023-05-24T12:08:30.847Z,2.49
2023-05-24T12:09:34.848Z,2.50
2023-05-24T12:10:40.835Z,2.77
2023-05-24T12:11:47.079Z,2.47
2023-05-24T12:12:51.136Z,2.39
2023-05-24T12:13:54.358Z,2.42
2023-05-24T12:14:58.142Z,2.20
2023-05-24T12:16:01.483Z,2.79
2023-05-24T12:17:04.974Z,2.70
2023-05-24T12:18:22.636Z,2.49
2023-05-24T12:19:33.631Z,2.71
2023-05-24T12:20:39.785Z,2.79
2023-05-24T12:21:43.488Z,2.62
2023-05-24T12:22:53.739Z,2.49
2023-05-24T12:23:57.097Z,2.62
2023-05-24T12:25:00.426Z,2.46
2023-05-24T12:26:04.318Z,2.53
2023-05-24T12:27:08.342Z,2.29
2023-05-24T12:28:12.659Z,2.42
2023-05-24T12:29:16.642Z,2.32
2023-05-24T12:30:24.798Z,2.56
2023-05-24T12:31:28.447Z,2.23
2023-05-24T12:32:32.329Z,2.06
2023-05-24T12:33:36.485Z,2.10
2023-05-24T12:34:42.533Z,2.14
2023-05-24T12:35:47.418Z,2.46
2023-05-24T12:36:50.854Z,2.17
2023-05-24T12:38:03.314Z,2.23
2023-05-24T12:39:20.810Z,2.04
2023-05-24T12:40:24.718Z,2.69
2023-05-24T12:41:31.456Z,2.06
2023-05-24T12:42:34.882Z,2.24
2023-05-24T12:43:38.150Z,2.44
2023-05-24T12:44:41.495Z,3.09
2023-05-24T12:45:44.923Z,2.30
2023-05-24T12:46:48.274Z,2.21
2023-05-24T12:47:53.100Z,2.39
2023-05-24T12:48:56.424Z,2.19
2023-05-24T12:50:00.332Z,2.44
2023-05-24T12:51:04.711Z,2.35
2023-05-24T12:52:08.294Z,2.21
2023-05-24T12:53:12.421Z,2.59
2023-05-24T12:54:16.113Z,2.45
2023-05-24T12:55:20.820Z,2.33
2023-05-24T12:56:28.060Z,2.40
2023-05-24T12:57:31.886Z,2.31
2023-05-24T12:58:35.702Z,2.37
2023-05-24T12:59:38.978Z,2.51
2023-05-24T13:00:42.516Z,2.13
2023-05-24T13:01:51.236Z,2.51
2023-05-24T13:02:57.221Z,2.43
2023-05-24T13:04:00.478Z,2.21
2023-05-24T13:05:04.849Z,2.32
2023-05-24T13:06:09.478Z,2.45
2023-05-24T13:07:13.477Z,2.20
2023-05-24T13:08:17.055Z,2.22
2023-05-24T13:09:22.274Z,2.29
2023-05-24T13:10:26.720Z,2.21
2023-05-24T13:11:31.933Z,2.16
2023-05-24T13:12:35.439Z,2.48
2023-05-24T13:13:39.166Z,2.44
2023-05-24T13:14:42.545Z,2.11
2023-05-24T13:15:46.443Z,2.36
2023-05-24T13:16:49.938Z,2.13
2023-05-24T13:17:54.332Z,2.15
2023-05-24T13:18:58.011Z,2.19
2023-05-24T13:20:07.543Z,2.33
2023-05-24T13:21:12.353Z,2.10
2023-05-24T13:22:16.230Z,2.47
2023-05-24T13:23:19.865Z,2.18
2023-05-24T13:24:23.946Z,2.13
2023-05-24T13:25:28.237Z,2.03
2023-05-24T13:26:31.753Z,2.45
2023-05-24T13:27:36.039Z,2.30
2023-05-24T13:28:47.947Z,2.07
2023-05-24T13:30:02.466Z,1.96
2023-05-24T13:31:06.253Z,2.14
2023-05-24T13:32:13.267Z,2.25
2023-05-24T13:33:17.005Z,2.04
2023-05-24T13:34:20.453Z,2.24
2023-05-24T13:35:23.765Z,2.13
2023-05-24T13:36:27.333Z,2.32
2023-05-24T13:37:30.665Z,2.14
2023-05-24T13:38:34.178Z,2.07
2023-05-24T13:39:39.162Z,2.51
2023-05-24T13:40:43.150Z,2.26
2023-05-24T13:41:47.292Z,2.15
2023-05-24T13:42:50.616Z,2.48
2023-05-24T13:43:54.325Z,2.54
2023-05-24T13:44:58.618Z,2.42
2023-05-24T13:46:01.956Z,2.52
2023-05-24T13:47:05.495Z,2.05
2023-05-24T13:48:09.031Z,2.09
2023-05-24T13:49:13.697Z,2.36
2023-05-24T13:50:17.433Z,2.33
2023-05-24T13:51:20.781Z,2.06
2023-05-24T13:52:24.483Z,2.21
2023-05-24T13:53:28.678Z,2.52
2023-05-24T13:54:32.907Z,1.99
2023-05-24T13:55:39.353Z,1.89
2023-05-24T13:56:45.227Z,1.96
2023-05-24T13:57:52.107Z,2.04
2023-05-24T13:58:55.775Z,1.76
2023-05-24T14:00:00.965Z,2.01
2023-05-24T14:01:04.240Z,1.96
2023-05-24T14:02:07.789Z,2.01
2023-05-24T14:03:13.694Z,1.94
2023-05-24T14:04:17.702Z,2.08
2023-05-24T14:05:27.522Z,2.15
2023-05-24T14:06:32.669Z,2.03
2023-05-24T14:07:36.084Z,1.96
2023-05-24T14:08:39.424Z,2.17
2023-05-24T14:09:43.703Z,2.04
2023-05-24T14:10:50.502Z,2.48
2023-05-24T14:11:54.349Z,2.15
2023-05-24T14:13:17.570Z,2.07
2023-05-24T14:14:58.573Z,2.10
2023-05-24T14:15:45.573Z,2.22
2023-05-24T14:16:52.420Z,2.11
2023-05-24T14:17:55.859Z,1.62
2023-05-24T14:18:59.308Z,2.00
2023-05-24T14:20:02.697Z,2.18
2023-05-24T14:21:05.979Z,2.12
2023-05-24T14:22:09.252Z,2.07
2023-05-24T14:23:12.601Z,2.33
2023-05-24T14:24:16.452Z,2.18
2023-05-24T14:25:19.756Z,2.04
2023-05-24T14:26:24.405Z,2.16
2023-05-24T14:27:27.687Z,2.03
2023-05-24T14:28:30.983Z,2.37
2023-05-24T14:29:34.561Z,2.19
2023-05-24T14:30:38.509Z,1.82
2023-05-24T14:31:44.672Z,2.38